Time;durP1;ratioP1;P1;durP2;ratioP2;P2;SDS_P1;SDS_P2;PMS_P1;PMS_P2;Temp;Humidity;BMP_temperature;BMP_pressure;BME280_temperature;BME280_humidity;BME280_pressure;Samples;Min_cycle;Max_cycle;Signal;HPM_P1;HPM_P2
2021/05/04 00:01:57;;;;;;;29.43;27.03;;;;;;;;;;4955817;28;20951;-67
2021/05/04 00:04:23;;;;;;;27.27;25.13;;;;;;;;;;4955972;28;20531;-65
2021/05/04 00:06:51;;;;;;;27.27;24.87;;;;;;;;;;4955467;28;20508;-66
2021/05/04 00:09:18;;;;;;;28.73;26.20;;;;;;;;;;4955663;28;20543;-66
2021/05/04 00:11:45;;;;;;;28.40;26.00;;;;;;;;;;4955522;28;20457;-66
2021/05/04 00:14:12;;;;;;;29.13;26.73;;;;;;;;;;4955879;28;21003;-65
2021/05/04 00:16:38;;;;;;;28.33;26.00;;;;;;;;;;4955551;28;20947;-66
2021/05/04 00:19:06;;;;;;;27.33;25.13;;;;;;;;;;4955645;28;20511;-66
2021/05/04 00:21:32;;;;;;;30.10;27.70;;;;;;;;;;4955163;28;20455;-67
2021/05/04 00:23:59;;;;;;;29.00;26.73;;;;;;;;;;4955604;28;20475;-65
2021/05/04 00:26:26;;;;;;;25.97;23.77;;;;;;;;;;4955253;28;20944;-65
2021/05/04 00:28:52;;;;;;;27.53;25.63;;;;;;;;;;4955367;28;20448;-67
2021/05/04 00:31:19;;;;;;;25.43;23.33;;;;;;;;;;4955476;28;20459;-66
2021/05/04 00:33:46;;;;;;;24.37;22.37;;;;;;;;;;4954358;28;21004;-66
2021/05/04 00:36:13;;;;;;;24.27;22.37;;;;;;;;;;4955343;28;21025;-65
2021/05/04 00:38:40;;;;;;;25.23;23.20;;;;;;;;;;4955057;28;20456;-65
2021/05/04 00:41:06;;;;;;;23.63;21.73;;;;;;;;;;4955536;28;20455;-65
2021/05/04 00:43:33;;;;;;;24.03;22.13;;;;;;;;;;4955258;28;20458;-66
2021/05/04 00:46:00;;;;;;;21.93;20.20;;;;;;;;;;4955046;28;20472;-66
2021/05/04 00:48:28;;;;;;;21.50;20.00;;;;;;;;;;4955518;28;20459;-67
2021/05/04 00:50:55;;;;;;;21.30;19.43;;;;;;;;;;4955271;28;20457;-66
2021/05/04 00:53:23;;;;;;;19.90;18.37;;;;;;;;;;4955126;28;20492;-66
2021/05/04 00:55:50;;;;;;;19.97;18.37;;;;;;;;;;4954813;28;20476;-66
2021/05/04 00:58:17;;;;;;;21.27;19.37;;;;;;;;;;4955175;28;20467;-66
2021/05/04 01:00:43;;;;;;;20.10;18.60;;;;;;;;;;4954936;28;20514;-66
2021/05/04 01:03:11;;;;;;;20.27;18.70;;;;;;;;;;4954091;28;20457;-66
2021/05/04 01:05:38;;;;;;;20.90;19.10;;;;;;;;;;4954388;28;20999;-66
2021/05/04 01:08:04;;;;;;;22.10;20.43;;;;;;;;;;4955003;28;20467;-65
2021/05/04 01:10:32;;;;;;;22.20;20.37;;;;;;;;;;4954382;28;21014;-66
2021/05/04 01:12:58;;;;;;;20.53;18.97;;;;;;;;;;4954813;28;20484;-65
2021/05/04 01:15:25;;;;;;;20.60;19.10;;;;;;;;;;4953997;28;20483;-65
2021/05/04 01:17:52;;;;;;;21.23;19.63;;;;;;;;;;4935807;29;20449;-66
2021/05/04 01:20:18;;;;;;;18.93;17.63;;;;;;;;;;4954420;29;20460;-65
2021/05/04 01:22:46;;;;;;;19.83;18.23;;;;;;;;;;4954948;28;20444;-65
2021/05/04 01:25:13;;;;;;;20.17;18.60;;;;;;;;;;4954554;28;20480;-65
2021/05/04 01:27:39;;;;;;;21.07;19.13;;;;;;;;;;4954773;28;20486;-65
2021/05/04 01:30:07;;;;;;;20.60;19.00;;;;;;;;;;4955486;28;20471;-65
2021/05/04 01:32:33;;;;;;;21.77;19.97;;;;;;;;;;4957136;28;20484;-65
2021/05/04 01:35:00;;;;;;;20.37;18.77;;;;;;;;;;4970404;28;20492;-66
2021/05/04 01:37:27;;;;;;;21.27;19.67;;;;;;;;;;4973285;28;20452;-67
2021/05/04 01:39:54;;;;;;;21.37;19.67;;;;;;;;;;4967395;28;20586;-67
2021/05/04 01:42:22;;;;;;;21.17;19.57;;;;;;;;;;4954917;28;20448;-67
2021/05/04 01:44:49;;;;;;;19.13;17.63;;;;;;;;;;4954157;28;20520;-68
2021/05/04 01:47:15;;;;;;;20.37;18.67;;;;;;;;;;4953424;28;20452;-67
2021/05/04 01:49:42;;;;;;;21.10;19.50;;;;;;;;;;4954038;28;20452;-68
2021/05/04 01:52:09;;;;;;;19.40;17.80;;;;;;;;;;4954000;28;20448;-68
2021/05/04 01:54:36;;;;;;;17.93;16.53;;;;;;;;;;4954097;28;20472;-67
2021/05/04 01:57:04;;;;;;;20.90;19.30;;;;;;;;;;4953491;28;20479;-66
2021/05/04 01:59:31;;;;;;;19.30;17.80;;;;;;;;;;4952905;28;20944;-67
2021/05/04 02:01:58;;;;;;;21.00;19.40;;;;;;;;;;4954436;28;20948;-67
2021/05/04 02:04:25;;;;;;;19.03;17.40;;;;;;;;;;4954255;28;20484;-66
2021/05/04 02:06:51;;;;;;;19.13;17.73;;;;;;;;;;4953767;28;20534;-68
2021/05/04 02:09:18;;;;;;;19.20;17.80;;;;;;;;;;4953843;28;20456;-68
2021/05/04 02:11:45;;;;;;;19.27;17.90;;;;;;;;;;4954350;28;20538;-67
2021/05/04 02:14:12;;;;;;;17.80;16.40;;;;;;;;;;4953587;28;20583;-67
2021/05/04 02:16:40;;;;;;;18.50;17.03;;;;;;;;;;4953310;28;20455;-67
2021/05/04 02:19:06;;;;;;;17.57;16.27;;;;;;;;;;4953403;28;20460;-66
2021/05/04 02:21:33;;;;;;;18.43;17.03;;;;;;;;;;4953650;28;20456;-67
2021/05/04 02:23:59;;;;;;;17.70;16.23;;;;;;;;;;4954204;28;20835;-67
2021/05/04 02:26:26;;;;;;;17.30;16.00;;;;;;;;;;4953181;28;20456;-66
2021/05/04 02:28:53;;;;;;;18.10;16.70;;;;;;;;;;4953608;28;20471;-67
2021/05/04 02:31:20;;;;;;;17.87;16.43;;;;;;;;;;4953807;28;20820;-66
2021/05/04 02:33:47;;;;;;;17.80;16.40;;;;;;;;;;4953578;28;20488;-67
2021/05/04 02:36:13;;;;;;;18.23;16.83;;;;;;;;;;4953508;28;20457;-71
2021/05/04 02:38:40;;;;;;;17.60;16.27;;;;;;;;;;4953490;28;20895;-66
2021/05/04 02:41:08;;;;;;;17.50;16.20;;;;;;;;;;4953466;28;20458;-66
2021/05/04 02:43:34;;;;;;;16.70;15.50;;;;;;;;;;4954479;28;20448;-67
2021/05/04 02:46:01;;;;;;;18.10;16.43;;;;;;;;;;4952727;28;20857;-67
2021/05/04 02:48:29;;;;;;;17.40;16.10;;;;;;;;;;4953593;29;20458;-67
2021/05/04 02:50:56;;;;;;;16.70;15.40;;;;;;;;;;4952984;28;20460;-66
2021/05/04 02:53:22;;;;;;;16.63;15.50;;;;;;;;;;4957688;28;20495;-67
2021/05/04 02:55:49;;;;;;;16.90;15.50;;;;;;;;;;4956582;28;20472;-67
2021/05/04 02:58:16;;;;;;;15.50;14.37;;;;;;;;;;4957791;28;20459;-68
2021/05/04 03:00:42;;;;;;;17.43;15.80;;;;;;;;;;4957048;28;20831;-67
2021/05/04 03:03:10;;;;;;;16.70;15.20;;;;;;;;;;4958828;28;20449;-67
2021/05/04 03:05:37;;;;;;;15.93;14.63;;;;;;;;;;4956644;28;20480;-66
2021/05/04 03:08:04;;;;;;;16.27;15.07;;;;;;;;;;4957256;28;20453;-67
2021/05/04 03:10:31;;;;;;;15.67;14.43;;;;;;;;;;4956554;28;20526;-67
2021/05/04 03:12:57;;;;;;;15.83;14.67;;;;;;;;;;4958464;28;20511;-67
2021/05/04 03:15:24;;;;;;;15.93;13.90;;;;;;;;;;4957991;28;20480;-67
2021/05/04 03:17:51;;;;;;;14.30;13.20;;;;;;;;;;4957785;28;20462;-67
2021/05/04 03:20:17;;;;;;;14.90;13.80;;;;;;;;;;4958326;28;20940;-66
2021/05/04 03:22:45;;;;;;;14.00;12.90;;;;;;;;;;4957750;28;20458;-68
2021/05/04 03:25:12;;;;;;;13.50;12.50;;;;;;;;;;4957043;28;20475;-67
2021/05/04 03:27:38;;;;;;;12.57;11.73;;;;;;;;;;4956528;28;20518;-67
2021/05/04 03:30:07;;;;;;;14.03;13.03;;;;;;;;;;4956375;28;20452;-67
2021/05/04 03:32:33;;;;;;;13.27;12.17;;;;;;;;;;4956840;28;20947;-67
2021/05/04 03:35:00;;;;;;;13.03;11.93;;;;;;;;;;4956374;28;20998;-68
2021/05/04 03:37:27;;;;;;;11.90;11.10;;;;;;;;;;4956181;28;20764;-66
2021/05/04 03:39:54;;;;;;;12.80;11.90;;;;;;;;;;4955660;28;20978;-66
2021/05/04 03:42:21;;;;;;;12.10;11.20;;;;;;;;;;4956909;28;20464;-67
2021/05/04 03:44:47;;;;;;;11.20;10.40;;;;;;;;;;4956910;28;20494;-66
2021/05/04 03:47:14;;;;;;;11.93;11.03;;;;;;;;;;4956007;28;20460;-67
2021/05/04 03:49:40;;;;;;;12.97;12.00;;;;;;;;;;4956486;28;20436;-67
2021/05/04 03:52:07;;;;;;;12.20;11.10;;;;;;;;;;4955592;28;21010;-66
2021/05/04 03:54:34;;;;;;;11.20;10.30;;;;;;;;;;4956269;28;20519;-66
2021/05/04 03:57:01;;;;;;;11.17;10.27;;;;;;;;;;4955606;28;20808;-66
2021/05/04 03:59:28;;;;;;;11.70;10.80;;;;;;;;;;4955352;28;20978;-66
2021/05/04 04:01:54;;;;;;;10.57;9.80;;;;;;;;;;4956393;28;20452;-67
2021/05/04 04:04:21;;;;;;;11.83;11.00;;;;;;;;;;4954800;28;20847;-67
2021/05/04 04:06:48;;;;;;;10.37;9.70;;;;;;;;;;4955710;28;20964;-65
2021/05/04 04:09:15;;;;;;;11.90;11.10;;;;;;;;;;4955565;29;20475;-66
2021/05/04 04:11:41;;;;;;;10.97;10.20;;;;;;;;;;4956011;28;20823;-66
2021/05/04 04:14:09;;;;;;;10.53;9.80;;;;;;;;;;4955792;29;20508;-65
2021/05/04 04:16:35;;;;;;;10.40;9.70;;;;;;;;;;4955461;28;20460;-66
2021/05/04 04:19:02;;;;;;;10.50;9.90;;;;;;;;;;4956260;28;20483;-65
2021/05/04 04:21:28;;;;;;;11.50;10.80;;;;;;;;;;4955344;28;20967;-66
2021/05/04 04:23:55;;;;;;;11.50;10.77;;;;;;;;;;4955725;28;20459;-66
2021/05/04 04:26:22;;;;;;;11.20;10.40;;;;;;;;;;4954958;28;20457;-66
2021/05/04 04:28:48;;;;;;;11.00;10.20;;;;;;;;;;4956003;28;20507;-65
2021/05/04 04:31:16;;;;;;;11.87;11.07;;;;;;;;;;4955702;28;20456;-66
2021/05/04 04:33:42;;;;;;;10.50;9.80;;;;;;;;;;4955375;28;20499;-65
2021/05/04 04:36:09;;;;;;;10.87;10.17;;;;;;;;;;4956031;28;20460;-66
2021/05/04 04:38:35;;;;;;;10.50;9.80;;;;;;;;;;4956976;28;20461;-67
2021/05/04 04:41:02;;;;;;;9.20;8.60;;;;;;;;;;4974649;28;20459;-66
2021/05/04 04:43:29;;;;;;;9.70;9.00;;;;;;;;;;4960427;28;20806;-66
2021/05/04 04:45:55;;;;;;;10.47;9.60;;;;;;;;;;4955015;28;20491;-66
2021/05/04 04:48:23;;;;;;;9.33;8.70;;;;;;;;;;4955790;28;20455;-67
2021/05/04 04:50:50;;;;;;;9.47;8.87;;;;;;;;;;4955884;28;20457;-67
2021/05/04 04:53:16;;;;;;;8.77;8.17;;;;;;;;;;4957629;28;20582;-67
2021/05/04 04:55:43;;;;;;;9.63;8.97;;;;;;;;;;4965064;28;20480;-66
2021/05/04 04:58:09;;;;;;;8.93;8.33;;;;;;;;;;4973465;28;20452;-65
2021/05/04 05:00:36;;;;;;;9.43;8.73;;;;;;;;;;4968849;28;20463;-67
2021/05/04 05:03:02;;;;;;;8.87;8.27;;;;;;;;;;4956072;28;20455;-67
2021/05/04 05:05:30;;;;;;;9.80;8.90;;;;;;;;;;4955300;28;20983;-66
2021/05/04 05:07:57;;;;;;;9.70;9.00;;;;;;;;;;4953986;28;20453;-67
2021/05/04 05:10:23;;;;;;;8.73;8.13;;;;;;;;;;4955225;28;20461;-67
2021/05/04 05:12:50;;;;;;;9.20;8.60;;;;;;;;;;4954628;28;20983;-67
2021/05/04 05:15:16;;;;;;;9.53;8.93;;;;;;;;;;4953683;28;20488;-67
2021/05/04 05:17:43;;;;;;;10.70;9.90;;;;;;;;;;4954685;28;20461;-67
2021/05/04 05:20:10;;;;;;;9.93;9.13;;;;;;;;;;4954837;28;20457;-67
2021/05/04 05:22:38;;;;;;;10.30;9.50;;;;;;;;;;4953775;28;20464;-68
2021/05/04 05:25:05;;;;;;;10.47;9.77;;;;;;;;;;4954457;28;20472;-66
2021/05/04 05:27:33;;;;;;;10.63;9.80;;;;;;;;;;4953825;28;20978;-67
2021/05/04 05:30:00;;;;;;;11.33;10.43;;;;;;;;;;4954486;28;20452;-67
2021/05/04 05:32:26;;;;;;;11.57;10.70;;;;;;;;;;4954124;28;20464;-67
2021/05/04 05:34:53;;;;;;;11.60;10.53;;;;;;;;;;4954238;28;20484;-67
2021/05/04 05:37:20;;;;;;;10.70;10.00;;;;;;;;;;4953988;28;20457;-66
2021/05/04 05:39:47;;;;;;;11.13;10.40;;;;;;;;;;4954490;28;20533;-67
2021/05/04 05:42:14;;;;;;;11.90;11.10;;;;;;;;;;4955037;28;20456;-66
2021/05/04 05:44:41;;;;;;;12.53;11.67;;;;;;;;;;4956629;28;20468;-68
2021/05/04 05:47:07;;;;;;;12.17;11.37;;;;;;;;;;4966155;28;20452;-67
2021/05/04 05:49:34;;;;;;;12.10;11.40;;;;;;;;;;4968082;28;20848;-67
2021/05/04 05:52:01;;;;;;;9.30;8.60;;;;;;;;;;4965057;28;20456;-67
2021/05/04 05:54:30;;;;;;;11.80;11.00;;;;;;;;;;4952656;28;20562;-67
2021/05/04 05:56:58;;;;;;;11.90;11.10;;;;;;;;;;4954764;28;20456;-67
2021/05/04 05:59:24;;;;;;;11.70;10.90;;;;;;;;;;4954147;28;20909;-67
2021/05/04 06:01:51;;;;;;;11.40;10.60;;;;;;;;;;4954499;28;20479;-67
2021/05/04 06:04:18;;;;;;;12.70;11.53;;;;;;;;;;4953849;28;20996;-67
2021/05/04 06:06:44;;;;;;;11.67;10.70;;;;;;;;;;4954030;28;20865;-67
2021/05/04 06:09:11;;;;;;;11.93;10.90;;;;;;;;;;4953821;28;20511;-67
2021/05/04 06:11:37;;;;;;;12.87;11.97;;;;;;;;;;4940005;28;20964;-67
2021/05/04 06:14:05;;;;;;;13.27;12.27;;;;;;;;;;4953565;28;20495;-67
2021/05/04 06:16:32;;;;;;;12.83;12.00;;;;;;;;;;4953091;28;20544;-67
2021/05/04 06:18:58;;;;;;;12.20;11.40;;;;;;;;;;4954471;28;20463;-67
2021/05/04 06:21:25;;;;;;;13.23;12.03;;;;;;;;;;4953746;28;20955;-67
2021/05/04 06:23:51;;;;;;;12.57;11.67;;;;;;;;;;4953426;28;20452;-67
2021/05/04 06:26:18;;;;;;;12.27;11.47;;;;;;;;;;4953292;28;20498;-67
2021/05/04 06:28:47;;;;;;;12.40;11.40;;;;;;;;;;4954377;28;20448;-67
2021/05/04 06:31:15;;;;;;;13.13;12.23;;;;;;;;;;4953494;28;20540;-67
2021/05/04 06:33:43;;;;;;;12.43;11.50;;;;;;;;;;4953718;28;20527;-68
2021/05/04 06:36:09;;;;;;;12.50;11.50;;;;;;;;;;4953947;28;20448;-67
2021/05/04 06:38:36;;;;;;;12.10;11.30;;;;;;;;;;4954036;28;20953;-67
2021/05/04 06:41:03;;;;;;;12.97;12.07;;;;;;;;;;4953154;28;21284;-67
2021/05/04 06:43:30;;;;;;;12.77;11.97;;;;;;;;;;4955595;28;20452;-67
2021/05/04 06:45:57;;;;;;;5.20;4.67;;;;;;;;;;4953076;28;20472;-65
2021/05/04 06:48:24;;;;;;;5.50;5.10;;;;;;;;;;4954091;28;20455;-64
2021/05/04 06:50:51;;;;;;;5.30;5.00;;;;;;;;;;4954088;28;20480;-63
2021/05/04 06:53:18;;;;;;;6.97;6.30;;;;;;;;;;4954105;28;20480;-64
2021/05/04 06:55:46;;;;;;;5.73;5.23;;;;;;;;;;4952506;28;20865;-63
2021/05/04 06:58:13;;;;;;;4.50;4.20;;;;;;;;;;4954600;28;20948;-64
2021/05/04 07:00:40;;;;;;;3.30;2.77;;;;;;;;;;4954552;28;20461;-64
2021/05/04 07:03:06;;;;;;;3.20;2.67;;;;;;;;;;4955966;28;20451;-64
2021/05/04 07:05:34;;;;;;;3.13;2.47;;;;;;;;;;4957160;28;20999;-64
2021/05/04 07:08:00;;;;;;;2.63;2.43;;;;;;;;;;4962762;28;20447;-62
2021/05/04 07:10:27;;;;;;;3.70;2.77;;;;;;;;;;4969257;28;20519;-64
2021/05/04 07:12:54;;;;;;;7.03;2.13;;;;;;;;;;4962600;28;21017;-64
2021/05/04 07:15:20;;;;;;;4.20;2.27;;;;;;;;;;4951698;28;21002;-64
2021/05/04 07:17:47;;;;;;;6.00;2.20;;;;;;;;;;4943235;29;20550;-64
2021/05/04 07:20:18;;;;;;;3.63;2.20;;;;;;;;;;4953787;28;20448;-64
2021/05/04 07:22:46;;;;;;;11.90;1.93;;;;;;;;;;4953998;28;20472;-64
2021/05/04 07:25:12;;;;;;;2.03;1.70;;;;;;;;;;4950560;28;21071;-64
2021/05/04 07:27:39;;;;;;;3.00;2.00;;;;;;;;;;4953084;28;20456;-64
2021/05/04 07:30:07;;;;;;;2.10;1.53;;;;;;;;;;4952957;28;20977;-64
2021/05/04 07:32:33;;;;;;;2.43;1.90;;;;;;;;;;4953371;28;20507;-64
2021/05/04 07:35:01;;;;;;;2.70;1.60;;;;;;;;;;4953227;28;20472;-64
2021/05/04 07:37:27;;;;;;;2.87;1.97;;;;;;;;;;4953372;28;20460;-63
2021/05/04 07:39:55;;;;;;;2.60;1.70;;;;;;;;;;4955518;28;20459;-63
2021/05/04 07:42:21;;;;;;;3.13;2.20;;;;;;;;;;4956968;28;20463;-63
2021/05/04 07:44:48;;;;;;;3.00;1.83;;;;;;;;;;4956022;28;20983;-64
2021/05/04 07:47:15;;;;;;;2.00;1.80;;;;;;;;;;4956162;28;20973;-63
2021/05/04 07:49:44;;;;;;;3.40;2.23;;;;;;;;;;4956063;28;20462;-64
2021/05/04 07:52:11;;;;;;;4.70;1.80;;;;;;;;;;4956552;28;20463;-63
2021/05/04 07:54:38;;;;;;;2.33;1.90;;;;;;;;;;4955456;28;21011;-62
2021/05/04 07:57:06;;;;;;;2.57;2.37;;;;;;;;;;4955250;28;20452;-62
2021/05/04 07:59:32;;;;;;;2.33;1.70;;;;;;;;;;4956078;28;20939;-62
2021/05/04 08:02:01;;;;;;;2.30;1.57;;;;;;;;;;4955750;28;21256;-63
2021/05/04 08:04:29;;;;;;;3.93;1.57;;;;;;;;;;4956197;28;20495;-62
2021/05/04 08:06:56;;;;;;;3.50;1.80;;;;;;;;;;4955804;28;20457;-62
2021/05/04 08:09:25;;;;;;;2.20;1.80;;;;;;;;;;4956414;28;20543;-62
2021/05/04 08:11:51;;;;;;;2.37;1.80;;;;;;;;;;4955683;28;20523;-62
2021/05/04 08:14:21;;;;;;;2.10;1.83;;;;;;;;;;4955822;28;20487;-62
2021/05/04 08:16:48;;;;;;;2.87;1.30;;;;;;;;;;4956041;28;20943;-62
2021/05/04 08:19:14;;;;;;;1.93;1.50;;;;;;;;;;4956442;29;20461;-62
2021/05/04 08:21:43;;;;;;;3.50;1.37;;;;;;;;;;4955503;28;20460;-63
2021/05/04 08:24:11;;;;;;;1.80;1.40;;;;;;;;;;4955792;28;20570;-63
2021/05/04 08:26:37;;;;;;;1.90;1.30;;;;;;;;;;4955199;28;20465;-62
2021/05/04 08:29:04;;;;;;;1.77;1.67;;;;;;;;;;4955686;28;20854;-62
2021/05/04 08:31:31;;;;;;;1.57;1.40;;;;;;;;;;4955649;28;20456;-62
2021/05/04 08:33:58;;;;;;;1.60;1.50;;;;;;;;;;4955896;28;20479;-62
2021/05/04 08:36:25;;;;;;;3.23;3.00;;;;;;;;;;4954897;28;20453;-64
2021/05/04 08:38:51;;;;;;;4.30;4.00;;;;;;;;;;4955886;28;20517;-63
2021/05/04 08:41:18;;;;;;;4.97;4.57;;;;;;;;;;4955122;28;20453;-65
2021/05/04 08:43:46;;;;;;;4.80;4.43;;;;;;;;;;4956022;28;21111;-66
2021/05/04 08:46:13;;;;;;;4.70;4.40;;;;;;;;;;4951095;28;20465;-67
2021/05/04 08:48:43;;;;;;;4.87;4.57;;;;;;;;;;4955133;29;20480;-65
2021/05/04 08:51:09;;;;;;;5.20;4.80;;;;;;;;;;4963076;28;20545;-66
2021/05/04 08:53:36;;;;;;;5.50;5.10;;;;;;;;;;4948739;28;20491;-66
2021/05/04 08:56:03;;;;;;;4.87;4.53;;;;;;;;;;4948944;29;20531;-67
2021/05/04 08:58:29;;;;;;;5.33;4.83;;;;;;;;;;4937285;29;20457;-65
2021/05/04 09:00:56;;;;;;;4.53;4.23;;;;;;;;;;4951973;29;20456;-65
2021/05/04 09:03:30;;;;;;;5.10;4.70;;;;;;;;;;4955825;28;20540;-65
2021/05/04 09:06:02;;;;;;;5.23;4.83;;;;;;;;;;4948879;29;20498;-65
2021/05/04 09:08:34;;;;;;;5.07;4.67;;;;;;;;;;4955215;28;20433;-65
2021/05/04 09:11:23;;;;;;;6.10;5.53;;;;;;;;;;4955017;29;20936;-65
2021/05/04 09:13:55;;;;;;;6.43;5.90;;;;;;;;;;4953377;28;20480;-66
2021/05/04 09:16:35;;;;;;;6.07;5.67;;;;;;;;;;4956400;28;20464;-65
2021/05/04 09:19:15;;;;;;;7.00;6.40;;;;;;;;;;4954728;28;20798;-65
2021/05/04 09:21:43;;;;;;;6.90;6.40;;;;;;;;;;4954213;28;20468;-65
2021/05/04 09:24:18;;;;;;;9.43;8.53;;;;;;;;;;4953738;28;20559;-65
2021/05/04 09:26:45;;;;;;;15.83;10.10;;;;;;;;;;4954487;28;20459;-65
2021/05/04 09:29:12;;;;;;;7.43;6.73;;;;;;;;;;4954108;28;20460;-66
2021/05/04 09:31:40;;;;;;;8.90;8.30;;;;;;;;;;4954319;28;20463;-64
2021/05/04 09:34:08;;;;;;;11.07;9.73;;;;;;;;;;4953902;28;20546;-64
2021/05/04 09:36:38;;;;;;;8.70;7.90;;;;;;;;;;4953943;28;20460;-64
2021/05/04 09:39:06;;;;;;;6.90;6.30;;;;;;;;;;4954208;28;20827;-64
2021/05/04 09:41:33;;;;;;;7.63;7.00;;;;;;;;;;4954428;28;20448;-65
2021/05/04 09:43:59;;;;;;;7.23;6.53;;;;;;;;;;4954033;28;20445;-64
2021/05/04 09:46:41;;;;;;;5.70;5.30;;;;;;;;;;4953632;29;20456;-64
2021/05/04 09:49:22;;;;;;;5.77;5.37;;;;;;;;;;4953971;28;20810;-65
2021/05/04 09:51:50;;;;;;;5.67;5.13;;;;;;;;;;4954317;28;20971;-64
2021/05/04 09:54:25;;;;;;;6.30;5.80;;;;;;;;;;4953713;28;20862;-64
2021/05/04 09:56:51;;;;;;;4.80;4.40;;;;;;;;;;4953475;28;20503;-64
2021/05/04 09:59:18;;;;;;;4.80;4.50;;;;;;;;;;4954018;28;20452;-64
2021/05/04 10:01:45;;;;;;;4.70;4.30;;;;;;;;;;4953250;28;20460;-64
2021/05/04 10:04:12;;;;;;;4.67;4.30;;;;;;;;;;4954001;28;20464;-64
2021/05/04 10:06:39;;;;;;;4.40;4.10;;;;;;;;;;4953656;29;20449;-64
2021/05/04 10:09:06;;;;;;;4.87;4.57;;;;;;;;;;4954077;28;20452;-64
2021/05/04 10:11:34;;;;;;;5.10;4.70;;;;;;;;;;4953034;28;20839;-64
2021/05/04 10:14:01;;;;;;;4.40;4.10;;;;;;;;;;4953811;28;21093;-64
2021/05/04 10:16:28;;;;;;;5.40;4.97;;;;;;;;;;4953230;28;20445;-65
2021/05/04 10:18:58;;;;;;;4.97;4.57;;;;;;;;;;4948290;28;20457;-64
2021/05/04 10:21:25;;;;;;;4.77;4.47;;;;;;;;;;4951084;29;20458;-64
2021/05/04 10:23:52;;;;;;;5.80;5.30;;;;;;;;;;4953474;28;20475;-64
2021/05/04 10:26:19;;;;;;;5.60;5.10;;;;;;;;;;4953526;28;20523;-64
2021/05/04 10:28:56;;;;;;;5.43;5.03;;;;;;;;;;4953640;28;20456;-64
2021/05/04 10:31:33;;;;;;;5.50;5.00;;;;;;;;;;4953874;28;20522;-64
2021/05/04 10:34:21;;;;;;;5.50;5.10;;;;;;;;;;4952062;29;20527;-64
2021/05/04 10:36:47;;;;;;;4.70;4.40;;;;;;;;;;4953295;28;20952;-64
2021/05/04 10:39:14;;;;;;;5.67;5.17;;;;;;;;;;4953863;28;20452;-64
2021/05/04 10:41:54;;;;;;;4.60;4.30;;;;;;;;;;4953257;28;20467;-64
2021/05/04 10:44:22;;;;;;;4.40;4.20;;;;;;;;;;4953978;28;20468;-64
2021/05/04 10:46:48;;;;;;;5.90;4.67;;;;;;;;;;4952968;28;20452;-64
2021/05/04 10:49:18;;;;;;;4.30;4.00;;;;;;;;;;4954010;28;20452;-64
2021/05/04 10:51:46;;;;;;;4.60;4.10;;;;;;;;;;4952451;28;20993;-64
2021/05/04 10:54:13;;;;;;;4.97;4.57;;;;;;;;;;4953846;28;20492;-64
2021/05/04 10:56:41;;;;;;;4.10;3.80;;;;;;;;;;4952508;28;20479;-65
2021/05/04 10:59:11;;;;;;;4.17;3.87;;;;;;;;;;4953842;28;20540;-64
2021/05/04 11:01:38;;;;;;;4.07;3.77;;;;;;;;;;4953378;28;20467;-64
2021/05/04 11:04:06;;;;;;;4.70;4.30;;;;;;;;;;4953518;28;20470;-64
2021/05/04 11:06:50;;;;;;;5.00;4.60;;;;;;;;;;4952763;28;20456;-64
2021/05/04 11:09:17;;;;;;;4.30;3.90;;;;;;;;;;4953853;28;20436;-64
2021/05/04 11:11:49;;;;;;;4.10;3.80;;;;;;;;;;4952589;28;20819;-64
2021/05/04 11:14:30;;;;;;;4.30;3.90;;;;;;;;;;4956617;28;21002;-64
2021/05/04 11:17:04;;;;;;;4.40;4.10;;;;;;;;;;4956452;28;20547;-64
2021/05/04 11:19:32;;;;;;;4.13;3.83;;;;;;;;;;4956776;28;20835;-64
2021/05/04 11:22:06;;;;;;;3.63;3.40;;;;;;;;;;4956864;28;20496;-64
2021/05/04 11:24:37;;;;;;;3.70;3.40;;;;;;;;;;4957407;28;20829;-64
2021/05/04 11:27:18;;;;;;;2.70;2.50;;;;;;;;;;4958034;28;20962;-65
2021/05/04 11:29:46;;;;;;;4.37;2.60;;;;;;;;;;4955890;28;20444;-65
2021/05/04 11:32:15;;;;;;;2.77;2.40;;;;;;;;;;4957350;28;20452;-65
2021/05/04 11:34:43;;;;;;;4.13;2.73;;;;;;;;;;4956219;28;20574;-65
2021/05/04 11:37:10;;;;;;;7.03;2.30;;;;;;;;;;4956487;28;20456;-65
2021/05/04 11:39:37;;;;;;;2.67;2.47;;;;;;;;;;4956461;28;20980;-65
2021/05/04 11:42:04;;;;;;;2.57;2.20;;;;;;;;;;4955625;28;20968;-65
2021/05/04 11:44:33;;;;;;;3.10;2.80;;;;;;;;;;4956521;28;20468;-65
2021/05/04 11:47:14;;;;;;;3.30;2.60;;;;;;;;;;4955754;28;20955;-65
2021/05/04 11:49:42;;;;;;;3.43;3.13;;;;;;;;;;4956002;28;20452;-65
2021/05/04 11:52:09;;;;;;;3.10;2.77;;;;;;;;;;4955500;28;20448;-65
2021/05/04 11:54:36;;;;;;;4.20;3.27;;;;;;;;;;4956052;28;20527;-65
2021/05/04 11:57:04;;;;;;;3.30;3.00;;;;;;;;;;4955300;28;20890;-65
2021/05/04 11:59:31;;;;;;;3.40;3.20;;;;;;;;;;4956523;28;20503;-65
2021/05/04 12:01:58;;;;;;;3.20;3.00;;;;;;;;;;4955068;28;20468;-66
2021/05/04 12:04:43;;;;;;;3.70;3.40;;;;;;;;;;4956327;28;20526;-65
2021/05/04 12:07:10;;;;;;;5.40;3.97;;;;;;;;;;4955602;28;20817;-65
2021/05/04 12:09:37;;;;;;;4.73;4.30;;;;;;;;;;4955927;28;20816;-65
2021/05/04 12:12:10;;;;;;;5.17;4.77;;;;;;;;;;4955438;28;20452;-65
2021/05/04 12:14:52;;;;;;;4.23;3.83;;;;;;;;;;4955764;28;21007;-63
2021/05/04 12:17:18;;;;;;;4.37;4.17;;;;;;;;;;4955030;28;20452;-64
2021/05/04 12:19:45;;;;;;;5.07;4.67;;;;;;;;;;4955443;28;20671;-64
2021/05/04 12:22:12;;;;;;;5.90;5.50;;;;;;;;;;4952085;29;20468;-65
2021/05/04 12:24:39;;;;;;;6.27;5.87;;;;;;;;;;4953442;28;20484;-65
2021/05/04 12:27:07;;;;;;;6.13;5.73;;;;;;;;;;4954785;28;20838;-65
2021/05/04 12:29:34;;;;;;;6.80;6.00;;;;;;;;;;4954856;28;20457;-65
2021/05/04 12:32:01;;;;;;;5.63;5.30;;;;;;;;;;4955120;28;20452;-65
2021/05/04 12:34:27;;;;;;;5.17;4.87;;;;;;;;;;4953915;28;20514;-65
2021/05/04 12:36:55;;;;;;;5.30;4.90;;;;;;;;;;4955155;28;20460;-65
2021/05/04 12:39:24;;;;;;;5.37;4.97;;;;;;;;;;4955075;28;20507;-64
2021/05/04 12:41:52;;;;;;;5.40;5.10;;;;;;;;;;4954933;28;20460;-65
2021/05/04 12:44:22;;;;;;;5.70;5.40;;;;;;;;;;4954691;28;20571;-65
2021/05/04 12:46:49;;;;;;;5.57;5.20;;;;;;;;;;4955568;28;20460;-65
2021/05/04 12:49:16;;;;;;;5.60;5.20;;;;;;;;;;4952544;28;20460;-65
2021/05/04 12:51:45;;;;;;;5.87;5.33;;;;;;;;;;4956257;29;20460;-65
2021/05/04 12:54:14;;;;;;;6.40;5.90;;;;;;;;;;4956305;28;21052;-65
2021/05/04 12:56:42;;;;;;;6.10;5.60;;;;;;;;;;4959493;28;20461;-65
2021/05/04 12:59:10;;;;;;;5.53;5.03;;;;;;;;;;4965930;28;20944;-66
2021/05/04 13:01:38;;;;;;;6.00;5.50;;;;;;;;;;4962279;28;20460;-65
2021/05/04 13:04:09;;;;;;;5.57;5.17;;;;;;;;;;4957317;28;20468;-65
2021/05/04 13:06:49;;;;;;;5.00;4.70;;;;;;;;;;4954167;28;20878;-65
2021/05/04 13:09:21;;;;;;;5.57;5.17;;;;;;;;;;4954575;28;20448;-65
2021/05/04 13:12:09;;;;;;;5.03;4.53;;;;;;;;;;4954986;28;20817;-64
2021/05/04 13:14:50;;;;;;;5.07;4.77;;;;;;;;;;4954801;28;20492;-65
2021/05/04 13:31:43;;;;;;;3.60;3.30;;;;;;;;;;4933222;28;20464;-65
2021/05/04 13:34:14;;;;;;;3.90;3.60;;;;;;;;;;4945946;29;20492;-65
2021/05/04 13:36:41;;;;;;;4.60;3.17;;;;;;;;;;4945043;28;20445;-66
2021/05/04 13:39:19;;;;;;;3.80;3.50;;;;;;;;;;4946453;29;20455;-66
2021/05/04 13:47:28;;;;;;;3.87;3.67;;;;;;;;;;4921726;29;20465;-66
2021/05/04 13:47:31;;;;;;;4.17;3.87;;;;;;;;;;4934808;29;20444;-66
2021/05/04 13:49:57;;;;;;;4.67;4.37;;;;;;;;;;4948995;29;20444;-66
2021/05/04 13:52:24;;;;;;;4.17;3.87;;;;;;;;;;4954632;28;20456;-65
2021/05/04 13:54:51;;;;;;;4.30;4.00;;;;;;;;;;4953492;29;20544;-65
2021/05/04 13:57:18;;;;;;;5.23;4.93;;;;;;;;;;4954054;28;20452;-66
2021/05/04 13:59:48;;;;;;;5.73;5.23;;;;;;;;;;4953296;28;20462;-66
2021/05/04 14:02:22;;;;;;;4.90;4.60;;;;;;;;;;4953707;28;20483;-66
2021/05/04 14:04:56;;;;;;;6.07;4.73;;;;;;;;;;4954055;28;20483;-66
2021/05/04 14:26:49;;;;;;;3.60;3.30;;;;;;;;;;4952845;29;20532;-65
2021/05/04 14:29:15;;;;;;;3.20;2.90;;;;;;;;;;4952201;28;20484;-65
2021/05/04 14:31:44;;;;;;;3.63;3.33;;;;;;;;;;4944883;28;20805;-66
2021/05/04 14:34:11;;;;;;;3.10;2.53;;;;;;;;;;4949951;29;20492;-66
2021/05/04 14:36:53;;;;;;;4.20;2.80;;;;;;;;;;4952214;28;20464;-66
2021/05/04 14:39:28;;;;;;;3.00;2.70;;;;;;;;;;4953045;28;20495;-66
2021/05/04 14:42:22;;;;;;;2.83;2.63;;;;;;;;;;4953330;29;20491;-66
2021/05/04 14:45:08;;;;;;;3.47;3.17;;;;;;;;;;4947253;28;20477;-66
2021/05/04 14:55:59;;;;;;;3.17;2.47;;;;;;;;;;4957298;29;20467;-66
2021/05/04 14:58:39;;;;;;;2.87;2.67;;;;;;;;;;4956751;28;20539;-67
2021/05/04 15:01:14;;;;;;;2.10;2.00;;;;;;;;;;4956426;28;20483;-67
2021/05/04 15:03:42;;;;;;;2.47;2.27;;;;;;;;;;4957880;28;20448;-66
2021/05/04 15:06:08;;;;;;;2.33;2.23;;;;;;;;;;4956492;28;20452;-66
2021/05/04 15:08:38;;;;;;;2.40;2.20;;;;;;;;;;4956741;28;20511;-66
2021/05/04 15:11:05;;;;;;;2.93;2.70;;;;;;;;;;4946932;29;20871;-66
2021/05/04 15:13:32;;;;;;;2.73;2.60;;;;;;;;;;4956802;28;20458;-66
2021/05/04 15:16:13;;;;;;;3.40;3.17;;;;;;;;;;4954975;29;20498;-66
2021/05/04 15:21:43;;;;;;;3.00;2.80;;;;;;;;;;4935757;29;20465;-66
2021/05/04 15:24:10;;;;;;;3.00;2.63;;;;;;;;;;4949455;28;20519;-66
2021/05/04 15:26:37;;;;;;;2.60;2.40;;;;;;;;;;4956341;28;20459;-66
2021/05/04 15:29:04;;;;;;;3.10;2.90;;;;;;;;;;4956863;28;20452;-66